Time;durP1;ratioP1;P1;durP2;ratioP2;P2;SDS_P1;SDS_P2;PMS_P1;PMS_P2;Temp;Humidity;BMP_temperature;BMP_pressure;BME280_temperature;BME280_humidity;BME280_pressure;Samples;Min_cycle;Max_cycle;Signal;HPM_P1;HPM_P2
2023/04/08 00:04:55;;;;;;;21.35;16.58;;;;;;;;;;10286903;28;20068;-68
2023/04/08 00:09:54;;;;;;;17.65;15.57;;;;;;;;;;10289662;28;20076;-69
2023/04/08 00:14:52;;;;;;;20.08;17.95;;;;;;;;;;10291387;28;20072;-68
2023/04/08 00:19:51;;;;;;;20.63;18.08;;;;;;;;;;10290765;28;20064;-69
2023/04/08 00:24:50;;;;;;;21.40;18.20;;;;;;;;;;10290003;28;20068;-69
2023/04/08 00:29:48;;;;;;;21.95;18.48;;;;;;;;;;10289987;28;20557;-68
2023/04/08 00:34:46;;;;;;;19.88;17.88;;;;;;;;;;10291270;28;20061;-69
2023/04/08 00:39:46;;;;;;;20.58;18.42;;;;;;;;;;10286981;28;20079;-68
2023/04/08 00:44:44;;;;;;;20.58;18.38;;;;;;;;;;10289180;28;20455;-69
2023/04/08 00:49:42;;;;;;;19.77;17.60;;;;;;;;;;10286895;28;20076;-69
2023/04/08 00:54:41;;;;;;;21.55;19.13;;;;;;;;;;10288356;28;20071;-69
2023/04/08 00:59:41;;;;;;;20.27;18.20;;;;;;;;;;10294578;28;20048;-68
2023/04/08 01:04:44;;;;;;;20.65;18.48;;;;;;;;;;10287506;28;20049;-68
2023/04/08 01:09:45;;;;;;;23.75;20.48;;;;;;;;;;10284057;28;20490;-68
2023/04/08 01:14:46;;;;;;;22.60;19.42;;;;;;;;;;10288964;28;20483;-69
2023/04/08 01:19:46;;;;;;;21.08;18.88;;;;;;;;;;10291624;28;20468;-69
2023/04/08 01:24:45;;;;;;;20.02;17.92;;;;;;;;;;10287698;28;20083;-68
2023/04/08 01:29:45;;;;;;;19.38;17.38;;;;;;;;;;10284356;28;20064;-69
2023/04/08 01:34:44;;;;;;;21.98;17.73;;;;;;;;;;10288756;28;20041;-69
2023/04/08 01:39:42;;;;;;;20.88;18.17;;;;;;;;;;10287073;28;20549;-68
2023/04/08 01:44:42;;;;;;;19.40;17.48;;;;;;;;;;10288755;28;20071;-68
2023/04/08 01:49:42;;;;;;;20.27;18.10;;;;;;;;;;10288592;28;20584;-68
2023/04/08 01:54:40;;;;;;;21.27;19.08;;;;;;;;;;10288387;28;20080;-68
2023/04/08 01:59:40;;;;;;;23.17;20.83;;;;;;;;;;10290962;28;20068;-68
2023/04/08 02:04:38;;;;;;;23.80;21.27;;;;;;;;;;10293552;28;20051;-68
2023/04/08 02:09:38;;;;;;;22.50;20.20;;;;;;;;;;10296308;28;20072;-68
2023/04/08 02:14:36;;;;;;;22.80;20.48;;;;;;;;;;10302772;28;20050;-67
2023/04/08 02:19:36;;;;;;;24.15;21.58;;;;;;;;;;10296165;28;20083;-68
2023/04/08 02:24:35;;;;;;;23.70;21.20;;;;;;;;;;10296637;28;20491;-70
2023/04/08 02:29:36;;;;;;;24.35;21.77;;;;;;;;;;10294441;28;20071;-68
2023/04/08 02:34:35;;;;;;;26.23;22.60;;;;;;;;;;10301298;28;20306;-68
2023/04/08 02:39:33;;;;;;;26.45;22.95;;;;;;;;;;10293651;28;20474;-68
2023/04/08 02:44:31;;;;;;;23.63;20.60;;;;;;;;;;10301169;28;20069;-68
2023/04/08 02:49:34;;;;;;;23.90;21.25;;;;;;;;;;10299523;28;20079;-68
2023/04/08 02:54:32;;;;;;;23.58;20.40;;;;;;;;;;10292460;28;20514;-69
2023/04/08 02:59:30;;;;;;;22.70;19.58;;;;;;;;;;10301047;28;20088;-69
2023/04/08 03:04:28;;;;;;;20.30;18.20;;;;;;;;;;10294073;28;20079;-69
2023/04/08 03:09:28;;;;;;;25.55;18.85;;;;;;;;;;10292666;28;20098;-69
2023/04/08 03:14:26;;;;;;;23.13;19.40;;;;;;;;;;10292316;28;20064;-69
2023/04/08 03:19:24;;;;;;;20.27;18.10;;;;;;;;;;10311409;28;20056;-69
2023/04/08 03:24:22;;;;;;;20.73;18.52;;;;;;;;;;10307897;28;20067;-70
2023/04/08 03:29:21;;;;;;;20.00;17.70;;;;;;;;;;10293078;28;20076;-69
2023/04/08 03:34:20;;;;;;;18.42;16.52;;;;;;;;;;10293606;28;20537;-69
2023/04/08 03:39:18;;;;;;;19.50;17.60;;;;;;;;;;10291159;28;20080;-70
2023/04/08 03:44:16;;;;;;;17.77;15.85;;;;;;;;;;10292029;28;20684;-70
2023/04/08 03:49:16;;;;;;;21.75;18.75;;;;;;;;;;10292021;28;20087;-70
2023/04/08 03:54:14;;;;;;;21.25;17.17;;;;;;;;;;10288695;28;20489;-70
2023/04/08 03:59:12;;;;;;;19.52;17.52;;;;;;;;;;10289684;28;20071;-70
2023/04/08 04:04:10;;;;;;;21.48;17.00;;;;;;;;;;10292104;28;20064;-70
2023/04/08 04:09:10;;;;;;;20.65;17.08;;;;;;;;;;10292321;28;20069;-68
2023/04/08 04:14:08;;;;;;;19.58;17.48;;;;;;;;;;10290495;28;20076;-69
2023/04/08 04:19:06;;;;;;;20.20;18.08;;;;;;;;;;10289996;28;20079;-69
2023/04/08 04:24:04;;;;;;;20.95;18.83;;;;;;;;;;10289851;28;20544;-68
2023/04/08 04:29:04;;;;;;;23.20;18.85;;;;;;;;;;10291414;28;20522;-70
2023/04/08 04:34:02;;;;;;;23.08;20.65;;;;;;;;;;10291489;28;20524;-69
2023/04/08 04:39:00;;;;;;;22.23;19.83;;;;;;;;;;10288579;28;20068;-69
2023/04/08 04:43:58;;;;;;;19.70;17.67;;;;;;;;;;10286093;28;20505;-70
2023/04/08 04:48:58;;;;;;;21.45;18.80;;;;;;;;;;10284476;28;20477;-70
2023/04/08 04:53:56;;;;;;;19.70;17.60;;;;;;;;;;10290996;28;20061;-69
2023/04/08 04:58:54;;;;;;;20.30;17.90;;;;;;;;;;10289195;28;20119;-69
2023/04/08 05:03:52;;;;;;;20.25;18.10;;;;;;;;;;10289653;28;20075;-70
2023/04/08 05:08:51;;;;;;;20.75;18.67;;;;;;;;;;10291184;28;20087;-68
2023/04/08 05:13:50;;;;;;;21.40;17.52;;;;;;;;;;10288520;28;20502;-70
2023/04/08 05:18:48;;;;;;;20.75;18.48;;;;;;;;;;10289012;28;20064;-70
2023/04/08 05:23:46;;;;;;;20.33;18.02;;;;;;;;;;10290199;28;20524;-70
2023/04/08 05:28:46;;;;;;;22.88;20.58;;;;;;;;;;10287745;28;20075;-69
2023/04/08 05:33:44;;;;;;;22.17;19.88;;;;;;;;;;10290339;28;20502;-69
2023/04/08 05:38:43;;;;;;;26.88;20.95;;;;;;;;;;10298321;28;20462;-69
2023/04/08 05:43:41;;;;;;;20.75;18.20;;;;;;;;;;10291307;28;20060;-69
2023/04/08 05:48:40;;;;;;;20.98;18.77;;;;;;;;;;10295624;28;20076;-69
2023/04/08 05:53:38;;;;;;;21.83;18.67;;;;;;;;;;10296657;28;20067;-69
2023/04/08 05:58:36;;;;;;;21.98;17.65;;;;;;;;;;10294825;28;20087;-69
2023/04/08 06:03:35;;;;;;;21.13;18.23;;;;;;;;;;10296047;28;20485;-69
2023/04/08 06:08:35;;;;;;;19.73;17.67;;;;;;;;;;10294586;28;20072;-69
2023/04/08 06:13:33;;;;;;;21.85;18.25;;;;;;;;;;10295227;28;20069;-69
2023/04/08 06:18:31;;;;;;;18.70;16.90;;;;;;;;;;10298068;28;20064;-69
2023/04/08 06:23:29;;;;;;;17.35;15.48;;;;;;;;;;10293714;28;20522;-69
2023/04/08 06:28:30;;;;;;;29.40;16.85;;;;;;;;;;10292001;28;20072;-69
2023/04/08 06:33:28;;;;;;;21.70;16.17;;;;;;;;;;10295734;28;20473;-69
2023/04/08 06:38:26;;;;;;;25.67;21.85;;;;;;;;;;10295777;28;20085;-69
2023/04/08 06:43:24;;;;;;;20.92;17.08;;;;;;;;;;10293332;28;20064;-69
2023/04/08 06:48:27;;;;;;;17.13;15.38;;;;;;;;;;10293926;28;20072;-69
2023/04/08 06:53:25;;;;;;;20.75;15.82;;;;;;;;;;10295214;28;20076;-69
2023/04/08 06:58:24;;;;;;;17.20;15.48;;;;;;;;;;10293577;28;20068;-69
2023/04/08 07:03:24;;;;;;;18.42;16.70;;;;;;;;;;10291543;28;20067;-69
2023/04/08 07:08:23;;;;;;;19.48;17.35;;;;;;;;;;10294547;28;20083;-69
2023/04/08 07:13:21;;;;;;;18.83;16.83;;;;;;;;;;10293625;28;20084;-69
2023/04/08 07:18:20;;;;;;;19.70;17.60;;;;;;;;;;10292529;28;20068;-69
2023/04/08 07:23:20;;;;;;;19.42;16.63;;;;;;;;;;10295337;28;20515;-69
2023/04/08 07:28:18;;;;;;;19.20;17.25;;;;;;;;;;10293523;28;20528;-69
2023/04/08 07:33:16;;;;;;;20.20;18.20;;;;;;;;;;10291577;28;20068;-69
2023/04/08 07:38:15;;;;;;;21.55;19.40;;;;;;;;;;10290394;28;20084;-69
2023/04/08 07:43:14;;;;;;;19.27;17.33;;;;;;;;;;10290535;28;20076;-69
2023/04/08 07:48:13;;;;;;;17.92;15.77;;;;;;;;;;10298033;28;20045;-69
2023/04/08 07:53:11;;;;;;;18.58;16.60;;;;;;;;;;10292826;28;20079;-69
2023/04/08 07:58:09;;;;;;;18.70;16.45;;;;;;;;;;10294684;28;20044;-69
2023/04/08 08:03:08;;;;;;;16.58;14.88;;;;;;;;;;10325660;28;20045;-69
2023/04/08 08:08:07;;;;;;;16.67;14.90;;;;;;;;;;10302323;28;20410;-68
2023/04/08 08:13:05;;;;;;;18.83;16.15;;;;;;;;;;10290302;28;20146;-69
2023/04/08 08:18:03;;;;;;;17.20;15.52;;;;;;;;;;10290278;28;20068;-69
2023/04/08 08:23:03;;;;;;;20.90;17.02;;;;;;;;;;10291167;28;20076;-69
2023/04/08 08:28:01;;;;;;;17.55;15.82;;;;;;;;;;10290255;28;20072;-69
2023/04/08 08:32:59;;;;;;;16.50;14.95;;;;;;;;;;10288512;28;20076;-69
2023/04/08 08:37:58;;;;;;;17.20;15.45;;;;;;;;;;10289219;28;20045;-69
2023/04/08 08:42:58;;;;;;;15.98;13.73;;;;;;;;;;10290274;28;20079;-69
2023/04/08 08:47:56;;;;;;;15.60;13.77;;;;;;;;;;10291521;28;20079;-70
2023/04/08 08:52:54;;;;;;;16.15;14.55;;;;;;;;;;10289122;28;20528;-69
2023/04/08 08:57:53;;;;;;;16.92;15.23;;;;;;;;;;10289292;28;20083;-69
2023/04/08 09:02:52;;;;;;;18.00;16.15;;;;;;;;;;10290803;28;20501;-69
2023/04/08 09:07:51;;;;;;;16.80;15.10;;;;;;;;;;10287107;28;20087;-69
2023/04/08 09:12:55;;;;;;;18.63;16.77;;;;;;;;;;10301398;28;20080;-69
2023/04/08 09:17:55;;;;;;;14.95;13.55;;;;;;;;;;10302231;28;20076;-69
2023/04/08 09:22:57;;;;;;;18.15;14.93;;;;;;;;;;10302337;28;20112;-69
2023/04/08 09:27:55;;;;;;;15.30;13.80;;;;;;;;;;10302671;28;20044;-69
2023/04/08 09:32:55;;;;;;;15.85;14.27;;;;;;;;;;10305176;28;20072;-69
2023/04/08 09:37:54;;;;;;;16.85;14.43;;;;;;;;;;10303181;28;20096;-69
2023/04/08 09:42:54;;;;;;;14.63;13.23;;;;;;;;;;10302146;28;20522;-69
2023/04/08 09:48:01;;;;;;;16.17;13.52;;;;;;;;;;10301776;28;20466;-69
2023/04/08 09:53:01;;;;;;;14.50;12.95;;;;;;;;;;10302435;28;20075;-69
2023/04/08 09:58:01;;;;;;;13.13;11.82;;;;;;;;;;10301164;28;20147;-68
2023/04/08 10:03:05;;;;;;;17.25;15.55;;;;;;;;;;10302026;28;20166;-69
2023/04/08 10:08:05;;;;;;;16.98;13.98;;;;;;;;;;10304598;28;20079;-69
2023/04/08 10:13:03;;;;;;;15.63;13.95;;;;;;;;;;10300436;28;20080;-69
2023/04/08 10:18:21;;;;;;;14.15;12.73;;;;;;;;;;10302549;28;20080;-68
2023/04/08 10:23:40;;;;;;;20.35;14.80;;;;;;;;;;10298097;28;20068;-69
2023/04/08 10:28:38;;;;;;;15.05;13.27;;;;;;;;;;10294519;28;20091;-69
2023/04/08 10:33:36;;;;;;;18.38;15.20;;;;;;;;;;10300516;28;20814;-69
2023/04/08 10:38:41;;;;;;;23.73;14.00;;;;;;;;;;10295807;28;20095;-69
2023/04/08 10:43:39;;;;;;;20.92;12.68;;;;;;;;;;10295898;28;20083;-69
2023/04/08 10:48:40;;;;;;;23.42;17.13;;;;;;;;;;10295149;28;20095;-69
2023/04/08 10:53:39;;;;;;;17.15;13.23;;;;;;;;;;10297427;28;20069;-69
2023/04/08 10:58:47;;;;;;;12.77;11.48;;;;;;;;;;10295251;28;20072;-69
2023/04/08 11:03:45;;;;;;;16.23;12.38;;;;;;;;;;10290059;28;20075;-68
2023/04/08 11:08:46;;;;;;;13.07;11.77;;;;;;;;;;10294058;28;20072;-68
2023/04/08 11:13:45;;;;;;;16.63;13.50;;;;;;;;;;10293483;28;20067;-69
2023/04/08 11:18:51;;;;;;;18.05;13.55;;;;;;;;;;10292464;28;20510;-69
2023/04/08 11:23:51;;;;;;;15.82;13.43;;;;;;;;;;10291910;28;20474;-67
2023/04/08 11:28:51;;;;;;;14.48;12.77;;;;;;;;;;10290495;28;20091;-68
2023/04/08 11:33:52;;;;;;;14.32;12.93;;;;;;;;;;10286301;28;20532;-68
2023/04/08 11:38:53;;;;;;;16.13;13.45;;;;;;;;;;10291270;28;20084;-68
2023/04/08 11:43:52;;;;;;;16.83;14.07;;;;;;;;;;10290274;28;20084;-68
2023/04/08 11:49:00;;;;;;;18.50;14.00;;;;;;;;;;10293387;28;20079;-69
2023/04/08 11:53:59;;;;;;;19.92;14.40;;;;;;;;;;10294506;28;20083;-69
2023/04/08 11:58:57;;;;;;;16.58;14.38;;;;;;;;;;10289723;28;20072;-69
2023/04/08 12:03:56;;;;;;;14.73;13.23;;;;;;;;;;10292845;28;20485;-68
2023/04/08 12:08:55;;;;;;;15.88;12.50;;;;;;;;;;10290571;28;20079;-69
2023/04/08 12:13:55;;;;;;;13.32;12.00;;;;;;;;;;10292320;28;20072;-68
2023/04/08 12:18:53;;;;;;;12.98;11.52;;;;;;;;;;10290005;28;20075;-69
2023/04/08 12:23:52;;;;;;;13.48;12.27;;;;;;;;;;10290685;28;20064;-69
2023/04/08 12:28:50;;;;;;;13.27;11.77;;;;;;;;;;10288634;28;20072;-70
2023/04/08 12:33:50;;;;;;;17.45;12.93;;;;;;;;;;10289869;28;20186;-69
2023/04/08 12:38:48;;;;;;;14.60;11.85;;;;;;;;;;10285691;28;20073;-69
2023/04/08 12:43:47;;;;;;;15.35;13.20;;;;;;;;;;10295102;28;20076;-68
2023/04/08 12:48:47;;;;;;;13.57;12.20;;;;;;;;;;10320367;28;20037;-69
2023/04/08 12:53:47;;;;;;;14.10;11.85;;;;;;;;;;10285241;28;20462;-69
2023/04/08 12:58:45;;;;;;;14.25;12.77;;;;;;;;;;10290039;28;20060;-70
2023/04/08 13:03:46;;;;;;;12.38;11.07;;;;;;;;;;10289326;28;20494;-69
2023/04/08 13:08:46;;;;;;;16.98;12.50;;;;;;;;;;10287012;28;20065;-69
2023/04/08 13:13:46;;;;;;;13.70;12.30;;;;;;;;;;10287851;28;20481;-69
2023/04/08 13:18:44;;;;;;;14.30;12.77;;;;;;;;;;10289696;28;20466;-70
2023/04/08 13:23:42;;;;;;;13.82;12.52;;;;;;;;;;10294317;28;20068;-70
2023/04/08 13:28:41;;;;;;;19.25;12.55;;;;;;;;;;10288080;28;20069;-68
2023/04/08 13:33:55;;;;;;;14.70;12.63;;;;;;;;;;10285561;28;20080;-69
2023/04/08 13:38:55;;;;;;;27.63;21.15;;;;;;;;;;10283987;28;20088;-69
2023/04/08 13:43:53;;;;;;;31.60;24.85;;;;;;;;;;10280854;28;20072;-70
2023/04/08 13:48:52;;;;;;;12.23;10.05;;;;;;;;;;10288947;28;20076;-70
2023/04/08 13:53:52;;;;;;;12.77;11.65;;;;;;;;;;10283174;28;20120;-70
2023/04/08 13:58:50;;;;;;;32.60;26.85;;;;;;;;;;10290039;28;20504;-70
2023/04/08 14:03:54;;;;;;;12.57;11.27;;;;;;;;;;10292261;28;20076;-70
2023/04/08 14:08:54;;;;;;;15.65;14.13;;;;;;;;;;10290381;28;20072;-69
2023/04/08 14:13:52;;;;;;;13.75;12.45;;;;;;;;;;10289352;28;20076;-69
2023/04/08 14:18:50;;;;;;;16.02;14.52;;;;;;;;;;10290627;28;20072;-69
2023/04/08 14:23:48;;;;;;;16.63;14.77;;;;;;;;;;10291397;28;20061;-70
2023/04/08 14:28:48;;;;;;;17.73;15.85;;;;;;;;;;10290652;28;20065;-69
2023/04/08 14:33:46;;;;;;;19.42;15.25;;;;;;;;;;10290460;28;20072;-69
2023/04/08 14:38:45;;;;;;;20.63;18.42;;;;;;;;;;10293469;28;20490;-69
2023/04/08 14:43:43;;;;;;;23.58;21.08;;;;;;;;;;10296406;28;20469;-69
2023/04/08 14:48:42;;;;;;;22.35;19.60;;;;;;;;;;10295126;28;20068;-69
2023/04/08 14:53:41;;;;;;;15.05;13.57;;;;;;;;;;10292251;28;20103;-69
2023/04/08 14:58:39;;;;;;;17.02;15.23;;;;;;;;;;10294797;28;20079;-70
2023/04/08 15:03:37;;;;;;;15.55;13.48;;;;;;;;;;10295775;28;20083;-69
2023/04/08 15:08:37;;;;;;;15.60;14.10;;;;;;;;;;10291918;28;20061;-69
2023/04/08 15:13:35;;;;;;;17.02;14.15;;;;;;;;;;10293802;28;20514;-69
2023/04/08 15:18:33;;;;;;;13.70;12.25;;;;;;;;;;10294332;28;20095;-69
2023/04/08 15:23:31;;;;;;;13.07;11.77;;;;;;;;;;10293676;28;20060;-69
2023/04/08 15:28:31;;;;;;;13.98;12.30;;;;;;;;;;10294207;28;20167;-69
2023/04/08 15:33:29;;;;;;;17.05;15.35;;;;;;;;;;10293273;28;20499;-69
2023/04/08 15:38:27;;;;;;;22.05;19.65;;;;;;;;;;10292433;28;20081;-69
2023/04/08 15:43:26;;;;;;;84.18;58.88;;;;;;;;;;10292962;28;20079;-69
2023/04/08 15:48:25;;;;;;;100.28;66.80;;;;;;;;;;10291184;28;20095;-68
2023/04/08 15:53:23;;;;;;;30.92;27.73;;;;;;;;;;10292410;28;20075;-69
2023/04/08 15:58:21;;;;;;;22.70;20.48;;;;;;;;;;10292069;28;20083;-69
2023/04/08 16:03:20;;;;;;;20.42;18.38;;;;;;;;;;10292124;28;20283;-69
2023/04/08 16:08:20;;;;;;;23.30;20.85;;;;;;;;;;10293287;28;20068;-69
2023/04/08 16:13:18;;;;;;;22.23;20.10;;;;;;;;;;10287724;28;20072;-69
2023/04/08 16:18:16;;;;;;;24.13;21.15;;;;;;;;;;10286570;28;20060;-69
2023/04/08 16:23:16;;;;;;;26.85;23.92;;;;;;;;;;10290573;28;20065;-69
2023/04/08 16:28:16;;;;;;;26.88;24.08;;;;;;;;;;10288776;28;20060;-69
2023/04/08 16:33:15;;;;;;;27.40;24.33;;;;;;;;;;10288437;28;20075;-69
2023/04/08 16:38:14;;;;;;;33.58;27.50;;;;;;;;;;10291031;28;20079;-69
2023/04/08 16:43:12;;;;;;;25.58;22.90;;;;;;;;;;10290348;28;20087;-69
2023/04/08 16:48:13;;;;;;;22.08;19.88;;;;;;;;;;10288735;28;20136;-70
2023/04/08 16:53:11;;;;;;;25.30;22.80;;;;;;;;;;10291425;28;20080;-69
2023/04/08 16:58:09;;;;;;;22.40;20.25;;;;;;;;;;10289187;28;20068;-69
2023/04/08 17:03:07;;;;;;;22.67;20.38;;;;;;;;;;10289681;28;20072;-69
2023/04/08 17:08:07;;;;;;;25.35;22.58;;;;;;;;;;10290595;28;20076;-70
2023/04/08 17:13:06;;;;;;;25.20;22.60;;;;;;;;;;10291471;28;20079;-69
2023/04/08 17:18:04;;;;;;;24.35;21.75;;;;;;;;;;10290575;28;20090;-68
2023/04/08 17:23:02;;;;;;;26.45;23.65;;;;;;;;;;10290131;28;20458;-68
2023/04/08 17:28:01;;;;;;;32.55;24.60;;;;;;;;;;10310359;28;20056;-69
2023/04/08 17:33:01;;;;;;;29.65;23.52;;;;;;;;;;10297447;28;20052;-68
2023/04/08 17:38:01;;;;;;;30.48;26.33;;;;;;;;;;10290589;28;20564;-68
2023/04/08 17:43:00;;;;;;;39.40;32.65;;;;;;;;;;10295179;28;20138;-68
2023/04/08 17:48:00;;;;;;;35.10;27.75;;;;;;;;;;10293492;28;20084;-69
2023/04/08 17:52:58;;;;;;;45.92;35.92;;;;;;;;;;10296488;28;20076;-68
2023/04/08 17:58:00;;;;;;;53.83;39.38;;;;;;;;;;10296747;28;20515;-69
2023/04/08 18:02:58;;;;;;;30.73;27.48;;;;;;;;;;10293686;28;20084;-69
2023/04/08 18:07:58;;;;;;;26.38;22.98;;;;;;;;;;10293452;28;20075;-69
2023/04/08 18:12:56;;;;;;;29.88;26.67;;;;;;;;;;10296201;28;21289;-69
2023/04/08 18:18:00;;;;;;;36.85;27.13;;;;;;;;;;10293188;28;20068;-68
2023/04/08 18:23:02;;;;;;;40.08;33.00;;;;;;;;;;10291827;28;20116;-69
2023/04/08 18:28:00;;;;;;;31.90;28.48;;;;;;;;;;10292642;28;20078;-68
2023/04/08 18:33:00;;;;;;;36.45;25.98;;;;;;;;;;10291546;28;20076;-68
2023/04/08 18:38:00;;;;;;;32.90;26.15;;;;;;;;;;10299095;28;20099;-68
2023/04/08 18:43:03;;;;;;;19.38;17.40;;;;;;;;;;10297598;28;20083;-70
2023/04/08 18:48:01;;;;;;;16.70;13.48;;;;;;;;;;10289538;28;20076;-67
2023/04/08 18:53:01;;;;;;;12.75;11.50;;;;;;;;;;10295575;28;20087;-68
2023/04/08 18:57:59;;;;;;;11.80;10.73;;;;;;;;;;10288414;28;20073;-68
2023/04/08 19:02:58;;;;;;;10.68;9.68;;;;;;;;;;10293506;28;20083;-66
2023/04/08 19:07:56;;;;;;;12.18;11.00;;;;;;;;;;10295279;28;20091;-66
2023/04/08 19:12:55;;;;;;;10.43;9.43;;;;;;;;;;10290911;28;20486;-68
2023/04/08 19:17:54;;;;;;;22.75;18.40;;;;;;;;;;10294260;28;20080;-68
2023/04/08 19:22:52;;;;;;;21.33;19.17;;;;;;;;;;10294925;28;20080;-68
2023/04/08 19:27:50;;;;;;;14.27;12.70;;;;;;;;;;10297221;28;20037;-67
2023/04/08 19:32:50;;;;;;;30.30;23.17;;;;;;;;;;10283974;28;20068;-67
2023/04/08 19:37:48;;;;;;;21.13;18.52;;;;;;;;;;10286707;28;20477;-65
2023/04/08 19:42:46;;;;;;;21.17;17.55;;;;;;;;;;10289464;28;20533;-66
2023/04/08 19:47:44;;;;;;;16.15;14.02;;;;;;;;;;10287325;28;20494;-67
2023/04/08 19:52:44;;;;;;;18.30;16.35;;;;;;;;;;10288598;28;20514;-66
2023/04/08 19:57:42;;;;;;;16.25;14.52;;;;;;;;;;10290558;28;20080;-68
2023/04/08 20:02:40;;;;;;;13.85;12.05;;;;;;;;;;10287967;28;20068;-67
2023/04/08 20:07:39;;;;;;;14.50;12.50;;;;;;;;;;10288897;28;20076;-67
2023/04/08 20:12:39;;;;;;;11.55;10.35;;;;;;;;;;10287159;28;20072;-66
2023/04/08 20:17:37;;;;;;;18.05;15.10;;;;;;;;;;10288367;28;20080;-67
2023/04/08 20:22:36;;;;;;;14.57;13.07;;;;;;;;;;10288114;28;20120;-68
2023/04/08 20:27:35;;;;;;;22.90;17.70;;;;;;;;;;10283527;28;20083;-68
2023/04/08 20:32:35;;;;;;;18.63;16.25;;;;;;;;;;10286126;28;20057;-68
2023/04/08 20:37:33;;;;;;;20.67;15.10;;;;;;;;;;10281689;28;20079;-66
2023/04/08 20:42:31;;;;;;;21.17;15.57;;;;;;;;;;10288270;28;20964;-66
2023/04/08 20:47:29;;;;;;;16.80;13.13;;;;;;;;;;10286484;28;20064;-67
2023/04/08 20:52:30;;;;;;;13.38;12.00;;;;;;;;;;10288962;28;20140;-67
2023/04/08 20:57:28;;;;;;;15.32;13.10;;;;;;;;;;10290548;28;20084;-68
2023/04/08 21:02:26;;;;;;;21.42;14.10;;;;;;;;;;10282088;28;20076;-67
2023/04/08 21:07:25;;;;;;;15.93;12.27;;;;;;;;;;10282698;28;20154;-67
2023/04/08 21:12:31;;;;;;;16.00;12.00;;;;;;;;;;10289170;28;20079;-68
2023/04/08 21:17:35;;;;;;;14.80;12.32;;;;;;;;;;10285400;28;20087;-68
2023/04/08 21:22:38;;;;;;;13.68;12.32;;;;;;;;;;10276440;28;20071;-68
2023/04/08 21:27:40;;;;;;;10.93;9.80;;;;;;;;;;10282646;28;20069;-68
2023/04/08 21:32:47;;;;;;;13.68;10.57;;;;;;;;;;10281641;28;20076;-67
2023/04/08 21:37:51;;;;;;;21.90;15.10;;;;;;;;;;10289086;28;20077;-67
2023/04/08 21:42:56;;;;;;;12.23;11.00;;;;;;;;;;10204647;28;20074;-68
2023/04/08 21:47:59;;;;;;;;;;;;;;;;;;10206755;28;20482;-68
2023/04/08 21:52:57;;;;;;;12.00;10.80;;;;;;;;;;10208858;28;19964;-68
2023/04/08 21:58:11;;;;;;;10.40;9.40;;;;;;;;;;10211808;28;20081;-68
2023/04/08 22:03:11;;;;;;;12.38;10.68;;;;;;;;;;10233796;28;20058;-68
2023/04/08 22:08:10;;;;;;;15.48;10.55;;;;;;;;;;10220607;28;20483;-68
2023/04/08 22:13:13;;;;;;;27.27;18.38;;;;;;;;;;10213614;28;20065;-68
2023/04/08 22:18:11;;;;;;;25.42;16.23;;;;;;;;;;10211917;28;20081;-69
2023/04/08 22:23:09;;;;;;;13.45;10.50;;;;;;;;;;10213748;28;20490;-68
2023/04/08 22:28:08;;;;;;;11.70;10.05;;;;;;;;;;10213312;28;20080;-69
2023/04/08 22:33:07;;;;;;;14.68;10.40;;;;;;;;;;10216334;28;20069;-68
2023/04/08 22:38:05;;;;;;;10.32;9.25;;;;;;;;;;10215414;28;20077;-68
2023/04/08 22:43:03;;;;;;;10.55;9.40;;;;;;;;;;10294923;28;20072;-68
2023/04/08 22:48:02;;;;;;;11.85;10.57;;;;;;;;;;10293963;28;20068;-68
2023/04/08 22:53:02;;;;;;;10.75;9.65;;;;;;;;;;10294369;28;20189;-68
2023/04/08 22:58:00;;;;;;;11.75;10.57;;;;;;;;;;10294613;28;20486;-68
2023/04/08 23:03:03;;;;;;;11.65;10.38;;;;;;;;;;10293409;28;20068;-68
2023/04/08 23:08:03;;;;;;;12.15;10.90;;;;;;;;;;10295053;28;20083;-68
2023/04/08 23:13:01;;;;;;;16.65;13.32;;;;;;;;;;10294211;28;20072;-68
2023/04/08 23:17:59;;;;;;;22.40;17.52;;;;;;;;;;10293297;28;20115;-68
2023/04/08 23:22:57;;;;;;;54.10;34.65;;;;;;;;;;10290234;28;20082;-69
2023/04/08 23:27:57;;;;;;;56.97;31.27;;;;;;;;;;10291640;28;20077;-68
2023/04/08 23:32:55;;;;;;;59.45;34.92;;;;;;;;;;10290569;28;20075;-68
2023/04/08 23:37:53;;;;;;;32.47;23.73;;;;;;;;;;10295490;28;20080;-68
2023/04/08 23:42:51;;;;;;;18.52;16.58;;;;;;;;;;10291393;28;20087;-68
2023/04/08 23:47:51;;;;;;;18.65;16.73;;;;;;;;;;10292713;28;20072;-69
2023/04/08 23:52:49;;;;;;;18.38;16.35;;;;;;;;;;10292522;28;20071;-68
2023/04/08 23:57:49;;;;;;;19.88;17.77;;;;;;;;;;10290852;28;20077;-68
